createdAt,value
2023-05-09T00:01:29.903Z,20.33
2023-05-09T00:03:59.112Z,18.70
2023-05-09T00:06:27.623Z,16.75
2023-05-09T00:08:55.755Z,12.27
2023-05-09T00:11:22.794Z,20.20
2023-05-09T00:13:50.868Z,20.85
2023-05-09T00:16:18.539Z,14.38
2023-05-09T00:18:45.595Z,15.27
2023-05-09T00:21:12.746Z,16.70
2023-05-09T00:23:39.878Z,14.70
2023-05-09T00:26:06.948Z,17.67
2023-05-09T00:28:34.074Z,16.20
2023-05-09T00:31:01.114Z,13.15
2023-05-09T00:33:28.173Z,17.88
2023-05-09T00:35:55.423Z,21.30
2023-05-09T00:38:23.460Z,16.38
2023-05-09T00:40:50.545Z,22.95
2023-05-09T00:43:17.762Z,20.63
2023-05-09T00:45:45.695Z,23.83
2023-05-09T00:48:13.612Z,23.90
2023-05-09T00:50:41.179Z,23.55
2023-05-09T00:53:08.991Z,26.15
2023-05-09T00:55:36.116Z,18.00
2023-05-09T00:58:04.043Z,24.42
2023-05-09T01:00:31.351Z,21.25
2023-05-09T01:02:58.631Z,19.75
2023-05-09T01:05:37.484Z,15.05
2023-05-09T01:08:31.431Z,22.52
2023-05-09T01:11:06.406Z,19.65
2023-05-09T01:14:06.183Z,20.15
2023-05-09T01:16:52.076Z,23.58
2023-05-09T01:20:10.619Z,18.48
2023-05-09T01:22:43.011Z,18.15
2023-05-09T01:25:13.336Z,21.63
2023-05-09T01:27:53.500Z,25.92
2023-05-09T01:30:20.814Z,18.85
2023-05-09T01:32:51.212Z,16.90
2023-05-09T01:35:22.457Z,28.05
2023-05-09T01:37:50.916Z,17.80
2023-05-09T01:40:21.359Z,21.13
2023-05-09T01:42:57.660Z,19.55
2023-05-09T01:45:26.915Z,21.73
2023-05-09T01:47:54.246Z,22.23
2023-05-09T01:50:22.945Z,24.15
2023-05-09T01:52:53.517Z,25.42
2023-05-09T01:55:22.689Z,21.00
2023-05-09T01:57:50.768Z,23.77
2023-05-09T02:00:19.328Z,25.48
2023-05-09T02:02:47.006Z,25.88
2023-05-09T02:05:17.715Z,23.85
2023-05-09T02:07:47.415Z,25.65
2023-05-09T02:10:15.730Z,20.52
2023-05-09T02:12:42.848Z,29.52
2023-05-09T02:15:10.205Z,22.92
2023-05-09T02:17:42.188Z,21.60
2023-05-09T02:20:13.313Z,27.25
2023-05-09T02:22:42.316Z,22.63
2023-05-09T02:25:11.856Z,24.10
2023-05-09T02:27:40.407Z,28.45
2023-05-09T02:30:12.739Z,22.63
2023-05-09T02:32:41.554Z,29.58
2023-05-09T02:35:10.311Z,24.17
2023-05-09T02:37:38.116Z,26.13
2023-05-09T02:40:08.973Z,31.33
2023-05-09T02:42:36.361Z,20.20
2023-05-09T02:45:03.625Z,26.88
2023-05-09T02:47:31.296Z,27.05
2023-05-09T02:49:58.956Z,26.88
2023-05-09T02:52:26.158Z,23.80
2023-05-09T02:54:53.196Z,22.92
2023-05-09T02:57:21.117Z,23.33
2023-05-09T02:59:48.129Z,20.17
2023-05-09T03:02:15.603Z,22.33
2023-05-09T03:04:43.349Z,23.00
2023-05-09T03:07:10.392Z,24.17
2023-05-09T03:09:39.288Z,28.63
2023-05-09T03:12:08.150Z,21.77
2023-05-09T03:14:36.443Z,24.30
2023-05-09T03:17:03.490Z,27.95
2023-05-09T03:19:34.791Z,23.55
2023-05-09T03:22:01.988Z,22.35
2023-05-09T03:24:31.851Z,24.85
2023-05-09T03:26:58.924Z,27.95
2023-05-09T03:29:26.056Z,26.27
2023-05-09T03:31:54.446Z,28.38
2023-05-09T03:34:22.044Z,26.13
2023-05-09T03:36:49.173Z,29.35
2023-05-09T03:39:16.436Z,27.98
2023-05-09T03:41:46.603Z,26.73
2023-05-09T03:44:13.964Z,26.38
2023-05-09T03:46:41.045Z,22.58
2023-05-09T03:49:08.520Z,26.45
2023-05-09T03:51:36.980Z,23.35
2023-05-09T03:54:08.131Z,30.40
2023-05-09T03:56:35.901Z,31.30
2023-05-09T03:59:03.048Z,27.30
2023-05-09T04:01:30.878Z,27.20
2023-05-09T04:04:00.227Z,24.98
2023-05-09T04:06:29.988Z,24.95
2023-05-09T04:08:58.218Z,21.38
2023-05-09T04:11:25.578Z,27.05
2023-05-09T04:13:52.630Z,26.27
2023-05-09T04:16:27.342Z,22.88
2023-05-09T04:18:54.508Z,22.98
2023-05-09T04:21:21.546Z,28.85
2023-05-09T04:23:51.400Z,27.15
2023-05-09T04:26:22.926Z,31.00
2023-05-09T04:28:52.890Z,34.58
2023-05-09T04:31:20.279Z,31.08
2023-05-09T04:33:51.377Z,28.90
2023-05-09T04:36:18.412Z,24.75
2023-05-09T04:38:46.418Z,27.40
2023-05-09T04:41:17.972Z,24.02
2023-05-09T04:43:44.968Z,26.88
2023-05-09T04:46:12.323Z,28.98
2023-05-09T04:48:39.485Z,23.85
2023-05-09T04:51:06.518Z,25.23
2023-05-09T04:53:34.269Z,26.08
2023-05-09T04:56:01.367Z,25.10
2023-05-09T04:58:29.466Z,28.33
2023-05-09T05:00:57.181Z,22.08
2023-05-09T05:03:24.186Z,24.02
2023-05-09T05:05:51.389Z,25.48
2023-05-09T05:08:18.502Z,28.88
2023-05-09T05:10:46.023Z,32.97
2023-05-09T05:13:15.959Z,25.10
2023-05-09T05:15:46.099Z,26.63
2023-05-09T05:18:14.037Z,33.90
2023-05-09T05:20:42.058Z,29.42
2023-05-09T05:23:09.446Z,24.63
2023-05-09T05:25:36.594Z,34.97
2023-05-09T05:28:03.802Z,29.90
2023-05-09T05:30:33.453Z,29.52
2023-05-09T05:33:01.772Z,26.67
2023-05-09T05:35:29.260Z,23.83
2023-05-09T05:37:57.274Z,27.90
2023-05-09T05:40:24.479Z,31.35
2023-05-09T05:42:54.255Z,29.65
2023-05-09T05:45:21.493Z,29.20
2023-05-09T05:47:52.865Z,29.52
2023-05-09T05:50:20.812Z,27.23
2023-05-09T05:52:48.322Z,29.13
2023-05-09T05:55:17.910Z,29.17
2023-05-09T05:57:45.719Z,28.25
2023-05-09T06:00:15.465Z,24.52
2023-05-09T06:02:55.162Z,26.58
2023-05-09T06:05:28.031Z,26.70
2023-05-09T06:07:55.185Z,23.58
2023-05-09T06:10:22.373Z,24.83
2023-05-09T06:12:49.520Z,28.05
2023-05-09T06:15:16.750Z,29.08
2023-05-09T06:17:46.996Z,31.65
2023-05-09T06:20:14.046Z,23.73
2023-05-09T06:22:41.071Z,26.55
2023-05-09T06:25:11.199Z,30.75
2023-05-09T06:27:38.598Z,31.77
2023-05-09T06:30:23.929Z,28.10
2023-05-09T06:32:52.341Z,26.95
2023-05-09T06:35:19.494Z,24.60
2023-05-09T06:37:48.439Z,28.63
2023-05-09T06:40:16.713Z,22.92
2023-05-09T06:42:44.612Z,32.00
2023-05-09T06:45:11.916Z,24.75
2023-05-09T06:47:39.075Z,23.40
2023-05-09T06:50:06.793Z,24.17
2023-05-09T06:52:33.910Z,23.70
2023-05-09T06:55:00.988Z,21.05
2023-05-09T06:57:28.155Z,28.13
2023-05-09T06:59:55.347Z,25.70
2023-05-09T07:02:22.409Z,20.60
2023-05-09T07:04:49.598Z,23.55
2023-05-09T07:07:17.237Z,22.73
2023-05-09T07:09:44.261Z,21.45
2023-05-09T07:12:11.282Z,26.92
2023-05-09T07:14:38.319Z,26.83
2023-05-09T07:17:21.143Z,23.92
2023-05-09T07:19:49.716Z,31.80
2023-05-09T07:22:16.887Z,23.27
2023-05-09T07:24:44.484Z,35.85
2023-05-09T07:27:11.577Z,23.23
2023-05-09T07:29:38.631Z,24.98
2023-05-09T07:32:06.171Z,25.67
2023-05-09T07:34:33.302Z,22.63
2023-05-09T07:37:00.310Z,28.33
2023-05-09T07:39:27.298Z,23.42
2023-05-09T07:41:54.328Z,26.80
2023-05-09T07:44:21.507Z,22.00
2023-05-09T07:46:48.552Z,25.38
2023-05-09T07:49:15.667Z,33.92
2023-05-09T07:51:42.765Z,20.90
2023-05-09T07:54:10.162Z,20.55
2023-05-09T07:56:37.283Z,31.30
2023-05-09T07:59:04.465Z,23.38
2023-05-09T08:01:31.677Z,20.42
2023-05-09T08:03:58.874Z,24.08
2023-05-09T08:06:26.437Z,24.60
2023-05-09T08:08:53.423Z,25.38
2023-05-09T08:11:20.502Z,29.90
2023-05-09T08:13:48.120Z,26.05
2023-05-09T08:16:17.296Z,21.20
2023-05-09T08:18:45.038Z,22.77
2023-05-09T08:21:12.135Z,24.55
2023-05-09T08:23:40.527Z,18.05
2023-05-09T08:26:07.619Z,22.35
2023-05-09T08:28:34.668Z,28.95
2023-05-09T08:31:02.221Z,28.58
2023-05-09T08:33:29.252Z,24.77
2023-05-09T08:35:56.388Z,25.15
2023-05-09T08:38:24.360Z,20.90
2023-05-09T08:40:51.687Z,27.70
2023-05-09T08:43:20.156Z,18.55
2023-05-09T08:45:51.918Z,24.02
2023-05-09T08:48:19.354Z,21.77
2023-05-09T08:50:46.942Z,33.70
2023-05-09T08:53:14.587Z,35.70
2023-05-09T08:55:41.720Z,32.10
2023-05-09T08:58:13.495Z,19.80
2023-05-09T09:00:41.585Z,14.73
2023-05-09T09:03:08.808Z,13.38
2023-05-09T09:05:41.848Z,15.43
2023-05-09T09:08:10.841Z,22.45
2023-05-09T09:10:47.081Z,16.20
2023-05-09T09:13:15.480Z,20.23
2023-05-09T09:15:45.151Z,18.30
2023-05-09T09:18:18.074Z,14.80
2023-05-09T09:20:48.509Z,17.73
2023-05-09T09:23:20.216Z,17.70
2023-05-09T09:25:48.335Z,16.93
2023-05-09T09:28:15.582Z,16.88
2023-05-09T09:30:48.894Z,14.43
2023-05-09T09:33:22.688Z,16.67
2023-05-09T09:35:51.557Z,17.10
2023-05-09T09:38:20.052Z,12.65
2023-05-09T09:40:56.840Z,10.95
2023-05-09T09:43:31.417Z,15.07
2023-05-09T09:46:03.100Z,16.45
2023-05-09T09:48:33.719Z,11.73
2023-05-09T09:51:11.357Z,19.02
2023-05-09T09:53:43.228Z,12.50
2023-05-09T09:56:10.993Z,16.15
2023-05-09T09:58:38.148Z,17.02
2023-05-09T10:01:09.949Z,23.33
2023-05-09T10:03:39.153Z,12.93
2023-05-09T10:06:13.236Z,12.60
2023-05-09T10:08:41.068Z,15.40
2023-05-09T10:11:09.442Z,15.88
2023-05-09T10:13:38.364Z,17.55
2023-05-09T10:16:06.079Z,18.10
2023-05-09T10:18:34.355Z,13.32
2023-05-09T10:21:03.641Z,12.30
2023-05-09T10:23:32.718Z,10.30
2023-05-09T10:26:12.354Z,10.80
2023-05-09T10:28:41.892Z,10.57
2023-05-09T10:31:27.838Z,11.80
2023-05-09T10:33:58.703Z,17.27
2023-05-09T10:36:26.331Z,14.52
2023-05-09T10:38:54.730Z,25.00
2023-05-09T10:41:23.543Z,17.50
2023-05-09T10:43:51.006Z,17.65
2023-05-09T10:46:18.605Z,15.68
2023-05-09T10:48:47.845Z,14.13
2023-05-09T10:51:16.261Z,12.13
2023-05-09T10:53:45.889Z,20.27
2023-05-09T10:56:33.273Z,13.00
2023-05-09T10:59:00.651Z,19.60
2023-05-09T11:01:34.591Z,16.80
2023-05-09T11:04:08.897Z,18.00
2023-05-09T11:06:42.158Z,22.88
2023-05-09T11:09:28.782Z,19.10
2023-05-09T11:12:01.705Z,16.13
2023-05-09T11:14:33.246Z,14.98
2023-05-09T11:17:02.890Z,18.98
2023-05-09T11:19:42.925Z,21.08
2023-05-09T11:22:27.781Z,15.77
2023-05-09T11:25:01.350Z,18.25
2023-05-09T11:27:29.215Z,17.10
2023-05-09T11:30:04.481Z,19.88
2023-05-09T11:32:32.845Z,17.13
2023-05-09T11:35:12.407Z,13.02
2023-05-09T11:37:45.455Z,13.48
2023-05-09T11:40:14.718Z,11.60
2023-05-09T11:42:44.774Z,12.35
2023-05-09T11:45:13.729Z,11.57
2023-05-09T11:47:41.523Z,15.98
2023-05-09T11:50:10.209Z,9.07
2023-05-09T11:52:38.387Z,11.77
2023-05-09T11:55:12.688Z,12.45
2023-05-09T11:57:42.057Z,12.73
2023-05-09T12:00:10.441Z,10.60
2023-05-09T12:02:38.304Z,14.10
2023-05-09T12:05:10.879Z,13.50
2023-05-09T12:10:08.635Z,13.85
2023-05-09T12:12:37.243Z,13.90
2023-05-09T12:15:07.839Z,14.00
2023-05-09T12:17:35.679Z,18.88
2023-05-09T12:20:06.805Z,12.93
2023-05-09T12:22:34.777Z,17.88
2023-05-09T12:25:07.182Z,10.95
2023-05-09T12:27:38.685Z,14.73
2023-05-09T12:30:15.909Z,13.88
2023-05-09T12:32:43.588Z,26.05
2023-05-09T12:35:11.157Z,22.20
2023-05-09T12:37:39.056Z,23.85
2023-05-09T12:40:12.227Z,12.63
2023-05-09T12:42:39.697Z,15.73
2023-05-09T12:45:10.847Z,15.95
2023-05-09T12:47:38.951Z,20.23
2023-05-09T12:50:07.317Z,20.83
2023-05-09T12:52:38.122Z,17.30
2023-05-09T12:55:13.320Z,22.08
2023-05-09T12:57:41.836Z,17.08
2023-05-09T13:00:10.220Z,13.20
2023-05-09T13:02:39.839Z,16.23
2023-05-09T13:05:06.976Z,14.90
2023-05-09T13:07:40.768Z,12.73
2023-05-09T13:10:21.184Z,12.48
2023-05-09T13:12:49.165Z,14.00
2023-05-09T13:15:17.489Z,17.00
2023-05-09T13:17:44.779Z,12.23
2023-05-09T13:20:11.964Z,11.48
2023-05-09T13:22:39.223Z,10.25
2023-05-09T13:25:06.968Z,7.78
2023-05-09T13:27:34.328Z,14.13
2023-05-09T13:30:01.508Z,10.48
2023-05-09T13:32:28.577Z,8.23
2023-05-09T13:34:55.740Z,9.35
2023-05-09T13:37:22.847Z,18.92
2023-05-09T13:39:49.905Z,19.08
2023-05-09T13:42:19.091Z,9.07
2023-05-09T13:44:46.338Z,25.55
2023-05-09T13:47:13.375Z,9.93
2023-05-09T13:49:40.438Z,11.50
2023-05-09T13:52:08.192Z,11.23
2023-05-09T13:54:35.356Z,23.60
2023-05-09T13:57:05.395Z,14.98
2023-05-09T13:59:32.500Z,6.97
2023-05-09T14:02:00.529Z,7.60
2023-05-09T14:04:28.822Z,10.35
2023-05-09T14:06:56.179Z,9.13
2023-05-09T14:09:23.331Z,21.05
2023-05-09T14:11:51.569Z,10.68
2023-05-09T14:14:19.823Z,11.90
2023-05-09T14:16:47.804Z,16.55
2023-05-09T14:19:15.374Z,19.00
2023-05-09T14:21:48.700Z,16.42
2023-05-09T14:24:16.491Z,30.02
2023-05-09T14:26:44.086Z,19.25
2023-05-09T14:29:11.307Z,12.25
2023-05-09T14:31:38.430Z,15.52
2023-05-09T14:34:06.154Z,12.30
2023-05-09T14:36:33.192Z,19.70
2023-05-09T14:39:00.259Z,17.58
2023-05-09T14:41:27.339Z,18.73
2023-05-09T14:43:54.445Z,17.30
2023-05-09T14:46:21.545Z,14.45
2023-05-09T14:48:48.543Z,17.75
2023-05-09T14:51:15.529Z,15.55
2023-05-09T14:53:42.589Z,13.23
2023-05-09T14:56:11.458Z,12.93
2023-05-09T14:58:38.680Z,18.20
2023-05-09T15:01:05.745Z,11.90
2023-05-09T15:03:32.968Z,11.43
2023-05-09T15:06:00.150Z,12.27
2023-05-09T15:08:27.255Z,17.92
2023-05-09T15:10:54.313Z,13.85
2023-05-09T15:13:21.620Z,19.48
2023-05-09T15:15:48.895Z,17.38
2023-05-09T15:18:17.012Z,19.15
2023-05-09T15:20:44.333Z,22.67
2023-05-09T15:23:12.982Z,12.50
2023-05-09T15:25:42.413Z,15.13
2023-05-09T15:28:09.417Z,16.58
2023-05-09T15:30:38.734Z,14.48
2023-05-09T15:33:06.242Z,15.73
2023-05-09T15:35:33.396Z,13.93
2023-05-09T15:38:00.501Z,16.67
2023-05-09T15:40:28.162Z,17.45
2023-05-09T15:42:55.191Z,18.15
2023-05-09T15:45:22.405Z,18.60
2023-05-09T15:47:49.485Z,20.42
2023-05-09T15:50:16.921Z,14.70
2023-05-09T15:52:44.093Z,20.15
2023-05-09T15:55:12.776Z,18.10
2023-05-09T15:57:39.874Z,18.38
2023-05-09T16:00:07.434Z,17.15
2023-05-09T16:02:39.596Z,17.25
2023-05-09T16:05:06.913Z,13.07
2023-05-09T16:07:35.677Z,14.93
2023-05-09T16:10:03.349Z,15.05
2023-05-09T16:12:32.630Z,16.27
2023-05-09T16:15:00.087Z,18.77
2023-05-09T16:17:27.468Z,9.85
2023-05-09T16:19:55.606Z,17.65
2023-05-09T16:22:22.653Z,10.98
2023-05-09T16:24:49.678Z,10.35
2023-05-09T16:27:17.403Z,10.63
2023-05-09T16:29:44.473Z,10.52
2023-05-09T16:32:11.569Z,10.38
2023-05-09T16:34:38.745Z,9.27
2023-05-09T16:37:06.121Z,16.48
2023-05-09T16:39:33.100Z,11.23
2023-05-09T16:42:00.149Z,10.13
2023-05-09T16:44:27.401Z,10.45
2023-05-09T16:46:54.387Z,10.75
2023-05-09T16:49:21.348Z,10.95
2023-05-09T16:51:48.300Z,9.32
2023-05-09T16:54:15.481Z,11.52
2023-05-09T16:56:42.540Z,11.40
2023-05-09T16:59:09.557Z,9.55
2023-05-09T17:01:36.615Z,12.57
2023-05-09T17:04:06.550Z,10.95
2023-05-09T17:06:34.142Z,8.20
2023-05-09T17:09:01.201Z,9.27
2023-05-09T17:11:29.021Z,7.50
2023-05-09T17:13:56.124Z,8.43
2023-05-09T17:16:23.206Z,10.60
2023-05-09T17:18:51.913Z,9.40
2023-05-09T17:21:20.147Z,10.13
2023-05-09T17:23:47.296Z,10.80
2023-05-09T17:26:14.512Z,9.65
2023-05-09T17:28:41.479Z,10.30
2023-05-09T17:31:08.544Z,17.10
2023-05-09T17:33:35.751Z,10.25
2023-05-09T17:36:02.735Z,8.40
2023-05-09T17:38:30.105Z,7.75
2023-05-09T17:40:57.366Z,9.15
2023-05-09T17:43:24.637Z,7.40
2023-05-09T17:45:52.323Z,11.35
2023-05-09T17:48:19.773Z,8.48
2023-05-09T17:50:46.801Z,13.75
2023-05-09T17:53:13.884Z,22.48
2023-05-09T17:55:42.249Z,38.92
2023-05-09T17:58:09.385Z,30.65
2023-05-09T18:00:36.537Z,20.55
2023-05-09T18:03:04.115Z,20.73
2023-05-09T18:05:31.253Z,26.88
2023-05-09T18:08:00.740Z,17.60
2023-05-09T18:10:28.722Z,17.90
2023-05-09T18:12:55.972Z,10.63
2023-05-09T18:15:24.732Z,10.65
2023-05-09T18:17:53.688Z,10.50
2023-05-09T18:20:21.003Z,13.40
2023-05-09T18:22:48.217Z,13.52
2023-05-09T18:25:15.401Z,12.43
2023-05-09T18:27:42.493Z,10.40
2023-05-09T18:30:09.875Z,11.63
2023-05-09T18:32:36.882Z,9.82
2023-05-09T18:35:04.285Z,15.00
2023-05-09T18:37:31.267Z,10.02
2023-05-09T18:39:58.274Z,16.85
2023-05-09T18:42:25.294Z,12.25
2023-05-09T18:44:52.454Z,11.63
2023-05-09T18:47:19.597Z,11.40
2023-05-09T18:49:47.464Z,7.10
2023-05-09T18:52:15.116Z,10.50
2023-05-09T18:54:42.188Z,3.88
2023-05-09T18:57:09.815Z,7.82
2023-05-09T18:59:36.904Z,6.32
2023-05-09T19:02:03.918Z,3.45
2023-05-09T19:04:31.066Z,13.55
2023-05-09T19:06:59.337Z,4.35
2023-05-09T19:09:26.706Z,4.53
2023-05-09T19:11:53.962Z,5.07
2023-05-09T19:14:20.962Z,6.75
2023-05-09T19:16:48.470Z,8.98
2023-05-09T19:19:15.676Z,7.25
2023-05-09T19:21:42.962Z,10.35
2023-05-09T19:24:10.114Z,6.68
2023-05-09T19:26:37.204Z,6.25
2023-05-09T19:29:07.842Z,9.43
2023-05-09T19:31:37.375Z,5.57
2023-05-09T19:34:04.377Z,6.20
2023-05-09T19:36:31.518Z,7.53
2023-05-09T19:38:58.582Z,8.30
2023-05-09T19:41:25.944Z,13.07
2023-05-09T19:43:53.291Z,6.78
2023-05-09T19:46:20.280Z,9.85
2023-05-09T19:48:47.395Z,8.27
2023-05-09T19:51:15.381Z,11.23
2023-05-09T19:53:42.414Z,5.05
2023-05-09T19:56:09.840Z,11.32
2023-05-09T19:58:37.014Z,8.63
2023-05-09T20:01:07.238Z,4.32
2023-05-09T20:03:38.600Z,9.43
2023-05-09T20:06:07.648Z,12.07
2023-05-09T20:08:35.175Z,13.25
2023-05-09T20:11:03.158Z,5.28
2023-05-09T20:13:30.493Z,5.55
2023-05-09T20:15:58.958Z,5.15
2023-05-09T20:18:26.736Z,8.25
2023-05-09T20:20:54.712Z,4.75
2023-05-09T20:23:21.807Z,7.35
2023-05-09T20:25:48.808Z,7.00
2023-05-09T20:28:20.089Z,4.53
2023-05-09T20:30:47.200Z,7.82
2023-05-09T20:33:15.351Z,4.55
2023-05-09T20:35:43.506Z,2.55
2023-05-09T20:38:11.679Z,6.45
2023-05-09T20:40:38.679Z,5.20
2023-05-09T20:43:05.680Z,5.68
2023-05-09T20:45:32.807Z,11.32
2023-05-09T20:48:01.576Z,9.57
2023-05-09T20:50:28.619Z,7.03
2023-05-09T20:52:55.704Z,3.80
2023-05-09T20:55:22.833Z,16.00
2023-05-09T20:57:49.808Z,4.07
2023-05-09T21:00:17.264Z,5.05
2023-05-09T21:02:44.645Z,6.28
2023-05-09T21:05:11.692Z,2.38
2023-05-09T21:07:38.678Z,6.28
2023-05-09T21:10:06.141Z,6.97
2023-05-09T21:12:33.149Z,6.45
2023-05-09T21:15:00.221Z,3.97
2023-05-09T21:17:27.277Z,2.80
2023-05-09T21:19:54.368Z,4.25
2023-05-09T21:22:21.472Z,4.82
2023-05-09T21:24:48.499Z,4.32
2023-05-09T21:27:15.515Z,7.20
2023-05-09T21:29:42.483Z,4.32
2023-05-09T21:32:13.231Z,5.63
2023-05-09T21:34:40.291Z,5.50
2023-05-09T21:37:07.270Z,6.40
2023-05-09T21:39:34.385Z,6.63
2023-05-09T21:42:01.367Z,10.73
2023-05-09T21:44:28.344Z,5.30
2023-05-09T21:46:55.433Z,5.60
2023-05-09T21:49:22.460Z,6.25
2023-05-09T21:51:49.493Z,5.57
2023-05-09T21:54:16.616Z,2.55
2023-05-09T21:56:43.647Z,7.20
2023-05-09T21:59:10.833Z,3.70
2023-05-09T22:01:38.025Z,10.02
2023-05-09T22:04:05.691Z,9.07
2023-05-09T22:06:33.137Z,5.30
2023-05-09T22:09:00.131Z,2.72
2023-05-09T22:11:27.194Z,4.07
2023-05-09T22:13:55.211Z,3.17
2023-05-09T22:16:22.710Z,7.70
2023-05-09T22:18:49.778Z,3.75
2023-05-09T22:21:16.795Z,4.35
2023-05-09T22:23:43.859Z,5.05
2023-05-09T22:26:10.879Z,3.55
2023-05-09T22:28:37.879Z,11.02
2023-05-09T22:31:06.633Z,4.15
2023-05-09T22:33:34.399Z,7.50
2023-05-09T22:36:01.650Z,9.50
2023-05-09T22:38:28.699Z,8.35
2023-05-09T22:40:55.692Z,3.15
2023-05-09T22:43:24.172Z,3.72
2023-05-09T22:45:52.717Z,11.82
2023-05-09T22:48:19.747Z,5.47
2023-05-09T22:50:46.723Z,8.85
2023-05-09T22:53:13.846Z,14.80
2023-05-09T22:55:41.310Z,1.42
2023-05-09T22:58:08.341Z,1.02
2023-05-09T23:00:35.737Z,3.53
2023-05-09T23:03:05.668Z,54.65
2023-05-09T23:05:32.734Z,2.22
2023-05-09T23:07:59.759Z,0.10
2023-05-09T23:10:26.949Z,2.35
2023-05-09T23:12:53.956Z,1.33
2023-05-09T23:15:21.051Z,9.95
2023-05-09T23:17:48.089Z,1.38
2023-05-09T23:20:15.958Z,0.88
2023-05-09T23:22:43.163Z,1.98
2023-05-09T23:25:10.341Z,2.05
2023-05-09T23:27:40.366Z,2.17
2023-05-09T23:30:10.799Z,0.95
2023-05-09T23:32:38.066Z,0.47
2023-05-09T23:35:05.849Z,2.00
2023-05-09T23:37:34.278Z,9.98
2023-05-09T23:40:01.301Z,0.60
2023-05-09T23:42:28.292Z,9.75
2023-05-09T23:44:55.282Z,0.20
2023-05-09T23:47:22.268Z,0.30
2023-05-09T23:49:49.279Z,0.55
2023-05-09T23:52:16.458Z,2.28
2023-05-09T23:54:43.448Z,1.95
2023-05-09T23:57:10.425Z,4.47
2023-05-09T23:59:37.535Z,0.30
